createdAt,value
2017-11-22T00:06:14.650Z,3.02
2017-11-22T00:15:51.869Z,3.02
2017-11-22T00:25:28.041Z,3.02
2017-11-22T00:35:05.200Z,3.03
2017-11-22T00:44:41.379Z,3.03
2017-11-22T00:54:17.304Z,3.03
2017-11-22T01:03:53.938Z,3.03
2017-11-22T01:13:30.254Z,3.02
2017-11-22T01:23:05.714Z,3.02
2017-11-22T01:32:43.212Z,3.02
2017-11-22T01:42:19.359Z,3.02
2017-11-22T01:51:56.223Z,3.02
2017-11-22T02:01:32.118Z,3.02
2017-11-22T02:11:07.972Z,3.02
2017-11-22T02:20:44.235Z,3.02
2017-11-22T02:30:20.497Z,3.02
2017-11-22T02:39:56.601Z,3.02
2017-11-22T02:49:32.745Z,3.02
2017-11-22T02:59:09.158Z,3.02
2017-11-22T03:08:43.413Z,3.01
2017-11-22T03:18:25.355Z,3.02
2017-11-22T03:28:02.258Z,3.02
2017-11-22T03:37:38.622Z,3.02
2017-11-22T03:47:14.624Z,3.02
2017-11-22T03:56:51.516Z,3.02
2017-11-22T04:06:27.709Z,3.02
2017-11-22T04:16:03.956Z,3.02
2017-11-22T04:25:39.651Z,3.02
2017-11-22T04:35:16.677Z,3.02
2017-11-22T04:44:52.891Z,3.02
2017-11-22T04:54:28.861Z,3.02
2017-11-22T05:04:06.128Z,3.02
2017-11-22T05:13:42.552Z,3.02
2017-11-22T05:23:18.439Z,3.02
2017-11-22T05:32:55.203Z,3.02
2017-11-22T05:42:32.305Z,3.02
2017-11-22T05:52:08.469Z,3.02
2017-11-22T06:01:44.799Z,3.02
2017-11-22T06:11:21.540Z,3.01
2017-11-22T06:20:58.085Z,3.01
2017-11-22T06:30:34.301Z,3.02
2017-11-22T06:40:10.713Z,3.02
2017-11-22T06:49:47.073Z,3.03
2017-11-22T06:59:23.536Z,3.03
2017-11-22T07:08:59.857Z,3.05
2017-11-22T07:18:35.956Z,3.06
2017-11-22T07:28:12.266Z,3.07
2017-11-22T07:37:48.622Z,3.05
2017-11-22T07:47:25.206Z,3.05
2017-11-22T07:57:01.554Z,3.06
2017-11-22T08:06:37.731Z,3.06
2017-11-22T08:16:14.117Z,3.05
2017-11-22T08:25:50.857Z,3.06
2017-11-22T08:35:27.123Z,3.06
2017-11-22T08:45:04.065Z,3.06
2017-11-22T08:54:40.314Z,3.07
2017-11-22T09:04:17.057Z,3.07
2017-11-22T09:13:54.052Z,3.07
2017-11-22T09:23:30.759Z,3.08
2017-11-22T09:33:06.809Z,3.07
2017-11-22T09:42:43.431Z,3.08
2017-11-22T09:52:20.287Z,3.08
2017-11-22T10:01:57.172Z,3.08
2017-11-22T10:11:34.074Z,3.08
2017-11-22T10:21:10.430Z,3.09
2017-11-22T10:30:47.423Z,3.09
2017-11-22T10:40:23.958Z,3.09
2017-11-22T10:50:01.506Z,3.08
2017-11-22T10:59:37.354Z,3.08
2017-11-22T11:09:14.132Z,3.09
2017-11-22T11:18:49.514Z,3.08
2017-11-22T11:28:26.248Z,3.08
2017-11-22T11:38:02.036Z,3.08
2017-11-22T11:47:38.042Z,3.08
2017-11-22T11:57:13.966Z,3.08
2017-11-22T12:06:50.213Z,3.08
2017-11-22T12:16:27.225Z,3.09
2017-11-22T12:26:04.300Z,3.09
2017-11-22T12:35:41.027Z,3.10
2017-11-22T12:45:16.962Z,3.09
2017-11-22T12:54:54.237Z,3.08
2017-11-22T13:04:29.987Z,3.09
2017-11-22T13:14:07.635Z,3.11
2017-11-22T13:23:46.052Z,3.09
2017-11-22T13:33:24.961Z,3.09
2017-11-22T13:42:54.320Z,3.10
2017-11-22T13:52:32.045Z,3.09
2017-11-22T14:02:07.136Z,3.09
2017-11-22T14:11:43.382Z,3.08
2017-11-22T14:21:19.851Z,3.08
2017-11-22T14:30:55.329Z,3.08
2017-11-22T14:40:30.137Z,3.08
2017-11-22T14:50:05.331Z,3.08
2017-11-22T14:59:40.473Z,3.09
2017-11-22T15:09:15.497Z,3.08
2017-11-22T15:18:51.892Z,3.07
2017-11-22T15:28:34.059Z,3.07
2017-11-22T15:37:59.949Z,3.06
2017-11-22T15:47:34.586Z,3.06
2017-11-22T15:57:11.192Z,3.05
2017-11-22T16:06:47.128Z,3.05
2017-11-22T16:16:23.266Z,3.05
2017-11-22T16:26:03.065Z,3.05
2017-11-22T16:35:32.702Z,3.03
2017-11-22T16:45:09.079Z,3.05
2017-11-22T16:54:45.437Z,3.05
2017-11-22T17:04:22.018Z,3.04
2017-11-22T17:13:57.836Z,3.04
2017-11-22T17:23:33.493Z,3.04
2017-11-22T17:33:09.034Z,3.04
2017-11-22T17:42:45.244Z,3.04
2017-11-22T17:52:25.384Z,3.04
2017-11-22T18:01:55.406Z,3.03
2017-11-22T18:11:31.021Z,3.03
2017-11-22T18:21:06.757Z,3.03
2017-11-22T18:30:43.314Z,3.03
2017-11-22T18:40:18.959Z,3.03
2017-11-22T18:49:54.895Z,3.03
2017-11-22T18:59:31.185Z,3.03
2017-11-22T19:09:07.729Z,3.03
2017-11-22T19:18:43.306Z,3.03
2017-11-22T19:28:19.418Z,3.03
2017-11-22T19:37:55.691Z,3.03
2017-11-22T19:47:31.997Z,3.02
2017-11-22T19:57:07.599Z,3.02
2017-11-22T20:06:43.335Z,3.02
2017-11-22T20:16:18.555Z,3.02
2017-11-22T20:25:54.808Z,3.02
2017-11-22T20:35:31.159Z,3.02
2017-11-22T20:45:08.016Z,3.02
2017-11-22T20:54:44.035Z,3.01
2017-11-22T21:04:19.686Z,3.01
2017-11-22T21:13:59.848Z,3.02
2017-11-22T21:23:30.329Z,3.01
2017-11-22T21:33:06.470Z,3.01
2017-11-22T21:42:43.013Z,3.01
2017-11-22T21:52:18.892Z,3.01
2017-11-22T22:01:54.428Z,3.01
2017-11-22T22:11:30.420Z,3.01
2017-11-22T22:21:05.957Z,3.01
2017-11-22T22:30:42.943Z,3.01
2017-11-22T22:40:19.269Z,3.01
2017-11-22T22:49:55.211Z,3.01
2017-11-22T22:59:31.184Z,3.01
2017-11-22T23:09:07.045Z,3.01
2017-11-22T23:18:43.141Z,3.01
2017-11-22T23:28:19.737Z,3.01
2017-11-22T23:37:56.562Z,3.01
2017-11-22T23:47:36.959Z,3.01
2017-11-22T23:57:07.199Z,3.01
